ココス (キーリング) 諸島 の空港の天気 - METARとTAF

ココス島国際空港 ( YPCC / CCK ) - ココス諸島 ココス (キーリング) 諸島
飛行場実況気象(Metar)
観測時間09/25 08:00 CCT (09/25 01:30 UTC)
風向・風速東南東 5m/s
視程10km以上
天気現象
少しの雲 雲底高度 520m
気温27℃
湿度74%
気圧1015hPa
METARYPCC 250130Z 11009KT 9999 FEW017 27/22 Q1015
過去の天気等 Google飛行場航空写真 Wunderground天気予報

過去48時間のMETAR

飛行場予報(TAF)
発表時間: 9/25 05:46 CCT (9/24 23:16 UTC)
予報対象時間: 25日6時 CCT ~ 26日6時 CCT
風向・風速南東 5m/s
視程10km以上
天気現象弱いしゅう雨
全天の4割程度の雲 雲底高度 610m
TAF AMD YPCC 242316Z 2500/2524 13010KT 9999 -SHRA SCT020